KHBG/HBG METAR and TAF weather

Enter ICAO airport designator
Station Type Date Time Source
KHBG METAR 2019/10/14 05:53 UTC NOAA

KHBG 140553Z AUTO 00000KT 10SM CLR 14/13 A3007 RMK AO2 SLP180 T01440128 10194 20144 402390144 58003


Station Type Date Time Source
KHBG Decoded METAR 2019/10/14 05:53 UTC NOAA

HATTIESBURG CHAIN MUNICIPAL, MS, United States (KHBG) 31-16N 89-15W 44M
Oct 14, 2019 - 01:53 AM EDT / 2019.10.14 0553 UTC
Wind: Calm:0
Visibility: 10 mile(s):0
Sky conditions: clear
Temperature: 57.9 F (14.4 C)
Dew Point: 55.0 F (12.8 C)
Relative Humidity: 90%
Pressure (altimeter): 30.07 in. Hg (1018 hPa)
Pressure tendency: 0.01 inches (0.3 hPa) lower than three hours ago
ob: KHBG 140553Z AUTO 00000KT 10SM CLR 14/13 A3007 RMK AO2 SLP180 T01440128 10194 20144 402390144 58003
cycle: 6

Station Type Date Time Source
KHBG TAF 2019/10/14 06:03 UTC NOAA

TAF KHBG 140601Z 1406/1506 01005KT P6SM SCT080 BKN120
FM141000 00000KT 5SM BR OVC030
FM141500 03004KT P6SM OVC050
FM142100 11004KT P6SM -SHRA OVC025

Example: see airport list